Time,TemperatureF,DewpointF,PressureIn,WindDirection,WindDirectionDegrees,WindSpeedMPH,WindSpeedGustMPH,Humidity,HourlyPrecipIn,Conditions,Clouds,dailyrainin,SolarRadiationWatts/m^2,SoftwareType,DateUTC
2013-03-04 01:00:00,36.0,34.0,29.91,North,0,0.0,4.0,95,-99.99,,,-99.99,4.970000,,2013-03-04 08:00:00,
2013-03-04 01:52:00,36.0,34.0,29.91,North,0,0.0,4.0,95,-99.99,,,-99.99,4.970000,,2013-03-04 08:52:00,
2013-03-04 02:00:00,35.0,34.0,29.91,SSE,168,1.0,0.0,93,-99.99,,,-99.99,6.340000,,2013-03-04 09:00:00,
2013-03-04 02:52:00,35.0,34.0,29.91,SSE,168,1.0,0.0,93,-99.99,,,-99.99,6.340000,,2013-03-04 09:52:00,
2013-03-04 03:00:00,36.0,33.0,29.93,ESE,119,3.0,-999.0,91,-99.99,,,-99.99,2.200000,,2013-03-04 10:00:00,
2013-03-04 03:52:00,36.0,33.0,29.93,ESE,119,3.0,-999.0,91,-99.99,,,-99.99,2.200000,,2013-03-04 10:52:00,
2013-03-04 04:00:00,34.0,32.0,29.93,North,355,7.0,8.0,93,-99.99,,,-99.99,1.250000,,2013-03-04 11:00:00,
2013-03-04 04:52:00,34.0,32.0,29.93,North,355,7.0,8.0,93,-99.99,,,-99.99,1.250000,,2013-03-04 11:52:00,
2013-03-04 05:00:00,32.0,28.0,29.95,North,360,6.0,9.0,84,-99.99,,,-99.99,0.000000,,2013-03-04 12:00:00,
2013-03-04 05:53:00,32.0,28.0,29.95,North,360,6.0,9.0,84,-99.99,,,-99.99,0.000000,,2013-03-04 12:53:00,
2013-03-04 06:00:00,33.0,27.0,29.97,North,354,7.0,10.0,79,-99.99,,,-99.99,0.000000,,2013-03-04 13:00:00,
2013-03-04 06:52:00,33.0,27.0,29.97,North,354,7.0,10.0,79,-99.99,,,-99.99,0.000000,,2013-03-04 13:52:00,
2013-03-04 07:00:00,32.0,25.0,29.99,North,5,7.0,10.0,76,-99.99,,,-99.99,0.530000,,2013-03-04 14:00:00,
2013-03-04 07:52:00,32.0,25.0,29.99,North,5,7.0,10.0,76,-99.99,,,-99.99,0.530000,,2013-03-04 14:52:00,
2013-03-04 08:00:00,35.0,23.0,30.02,NE,35,3.0,10.0,62,-99.99,,,-99.99,66.629997,,2013-03-04 15:00:00,
2013-03-04 08:52:00,35.0,23.0,30.02,NE,35,3.0,10.0,62,-99.99,,,-99.99,66.629997,,2013-03-04 15:52:00,
2013-03-04 09:00:00,33.0,22.0,30.05,North,4,6.0,8.0,62,-99.99,,,-99.99,308.500000,,2013-03-04 16:00:00,
2013-03-04 09:52:00,33.0,22.0,30.05,North,4,6.0,8.0,62,-99.99,,,-99.99,308.500000,,2013-03-04 16:52:00,
2013-03-04 10:00:00,32.0,21.0,30.06,North,2,8.0,11.0,63,-99.99,,,-99.99,408.299988,,2013-03-04 17:00:00,
2013-03-04 10:52:00,32.0,21.0,30.06,North,2,8.0,11.0,63,-99.99,,,-99.99,408.299988,,2013-03-04 17:52:00,
2013-03-04 11:00:00,33.0,20.0,30.09,NNW,347,8.0,14.0,60,-99.99,,,-99.99,267.700012,,2013-03-04 18:00:00,
2013-03-04 11:52:00,33.0,20.0,30.09,NNW,347,8.0,14.0,60,-99.99,,,-99.99,267.700012,,2013-03-04 18:52:00,
2013-03-04 12:00:00,34.0,17.0,30.11,North,2,8.0,10.0,48,-99.99,,,-99.99,681.599976,,2013-03-04 19:00:00,
2013-03-04 12:52:00,34.0,17.0,30.11,North,2,8.0,10.0,48,-99.99,,,-99.99,681.599976,,2013-03-04 19:52:00,
2013-03-04 13:00:00,35.0,19.0,30.11,North,5,6.0,11.0,52,-99.99,,,-99.99,860.000000,,2013-03-04 20:00:00,
2013-03-04 13:52:00,35.0,19.0,30.11,North,5,6.0,11.0,52,-99.99,,,-99.99,860.000000,,2013-03-04 20:52:00,
2013-03-04 14:00:00,35.0,19.0,30.11,North,10,7.0,9.0,51,-99.99,,,-99.99,774.799988,,2013-03-04 21:00:00,
2013-03-04 14:52:00,35.0,19.0,30.11,North,10,7.0,9.0,51,-99.99,,,-99.99,774.799988,,2013-03-04 21:52:00,
2013-03-04 15:00:00,35.0,16.0,30.13,NNE,14,6.0,8.0,46,-99.99,,,-99.99,651.099976,,2013-03-04 22:00:00,
2013-03-04 15:52:00,35.0,16.0,30.13,NNE,14,6.0,8.0,46,-99.99,,,-99.99,651.099976,,2013-03-04 22:52:00,
2013-03-04 16:00:00,36.0,15.0,30.14,NNE,18,5.0,8.0,43,-99.99,,,-99.99,504.700012,,2013-03-04 23:00:00,
2013-03-04 16:52:00,36.0,15.0,30.14,NNE,18,5.0,8.0,43,-99.99,,,-99.99,504.700012,,2013-03-04 23:52:00,
2013-03-04 17:00:00,39.0,16.0,30.15,NNE,20,2.0,8.0,40,-99.99,,,-99.99,324.600006,,2013-03-05 00:00:00,
2013-03-04 17:52:00,39.0,16.0,30.15,NNE,20,2.0,8.0,40,-99.99,,,-99.99,324.600006,,2013-03-05 00:52:00,
2013-03-04 18:00:00,33.0,14.0,30.16,North,0,0.0,4.0,45,-99.99,,,-99.99,129.399994,,2013-03-05 01:00:00,
2013-03-04 18:52:00,33.0,14.0,30.16,North,0,0.0,4.0,45,-99.99,,,-99.99,129.399994,,2013-03-05 01:52:00,
2013-03-04 19:00:00,29.0,12.0,30.17,ENE,57,1.0,0.0,49,-99.99,,,-99.99,6.240000,,2013-03-05 02:00:00,
2013-03-04 19:52:00,29.0,12.0,30.17,ENE,57,1.0,0.0,49,-99.99,,,-99.99,6.240000,,2013-03-05 02:52:00,
2013-03-04 20:00:00,27.0,12.0,30.18,East,91,2.0,4.0,51,-99.99,,,-99.99,0.000000,,2013-03-05 03:00:00,
2013-03-04 20:52:00,27.0,12.0,30.18,East,91,2.0,4.0,51,-99.99,,,-99.99,0.000000,,2013-03-05 03:52:00,
2013-03-04 21:00:00,27.0,11.0,30.19,East,96,2.0,4.0,50,-99.99,,,-99.99,0.000000,,2013-03-05 04:00:00,
2013-03-04 21:52:00,27.0,11.0,30.19,East,96,2.0,4.0,50,-99.99,,,-99.99,0.000000,,2013-03-05 04:52:00,
2013-03-04 23:00:00,22.0,9.0,30.21,ESE,107,3.0,4.0,58,-99.99,,,-99.99,0.000000,,2013-03-05 06:00:00,
2013-03-04 23:32:00,21.0,10.0,-100.00,ESE,111,2.0,4.0,62,-99.99,,,-99.99,0.000000,,2013-03-05 06:32:00,
2013-03-04 23:42:00,21.0,10.0,-100.00,ESE,111,2.0,4.0,62,-99.99,,,-99.99,0.000000,,2013-03-05 06:42:00,
2013-03-04 23:52:00,22.0,9.0,30.21,ESE,107,3.0,4.0,58,-99.99,,,-99.99,0.000000,,2013-03-05 06:52:00,